Time;durP1;ratioP1;P1;durP2;ratioP2;P2;SDS_P1;SDS_P2;PMS_P1;PMS_P2;Temp;Humidity;BMP_temperature;BMP_pressure;BME280_temperature;BME280_humidity;BME280_pressure;Samples;Min_cycle;Max_cycle;Signal;HPM_P1;HPM_P2
2024/04/01 00:01:27;;;;;;;1.67;0.60;;;13.40;99.90;;;;;;5073567;28;20856;-58
2024/04/01 00:03:56;;;;;;;3.27;0.77;;;13.40;99.90;;;;;;5073918;28;20452;-58
2024/04/01 00:06:22;;;;;;;1.03;0.47;;;13.40;99.90;;;;;;5073912;28;20203;-58
2024/04/01 00:08:48;;;;;;;0.73;0.50;;;13.40;99.90;;;;;;5074055;28;20463;-58
2024/04/01 00:11:15;;;;;;;1.47;0.40;;;13.40;99.90;;;;;;5073664;28;20198;-58
2024/04/01 00:13:43;;;;;;;0.70;0.50;;;13.40;99.90;;;;;;5073593;28;20444;-57
2024/04/01 00:16:08;;;;;;;1.70;0.43;;;13.40;99.90;;;;;;5073630;28;20445;-57
2024/04/01 00:18:35;;;;;;;1.53;0.60;;;13.40;99.90;;;;;;5073592;28;20532;-58
2024/04/01 00:21:01;;;;;;;0.73;0.73;;;13.30;99.90;;;;;;5073596;28;20240;-58
2024/04/01 00:23:28;;;;;;;1.10;0.93;;;13.30;99.90;;;;;;5073604;28;20934;-58
2024/04/01 00:25:54;;;;;;;1.20;0.83;;;13.30;99.90;;;;;;5073542;28;20202;-58
2024/04/01 00:28:20;;;;;;;1.47;1.20;;;13.30;99.90;;;;;;5073112;28;20468;-58
2024/04/01 00:30:47;;;;;;;0.60;0.60;;;13.40;99.90;;;;;;5073520;28;20313;-58
2024/04/01 00:33:14;;;;;;;1.27;0.80;;;13.30;99.90;;;;;;5073177;28;20939;-58
2024/04/01 00:35:40;;;;;;;0.93;0.70;;;13.30;99.90;;;;;;5073483;28;20441;-58
2024/04/01 00:38:07;;;;;;;1.67;0.80;;;13.30;99.90;;;;;;5073381;28;20468;-58
2024/04/01 00:40:35;;;;;;;3.00;0.57;;;13.30;99.90;;;;;;5073413;28;20448;-58
2024/04/01 00:43:05;;;;;;;0.60;0.53;;;13.30;99.90;;;;;;5073287;28;20468;-58
2024/04/01 00:45:31;;;;;;;0.40;0.33;;;13.30;99.90;;;;;;5073345;28;20435;-58
2024/04/01 00:48:01;;;;;;;0.60;0.50;;;13.30;99.90;;;;;;5072906;28;20542;-58
2024/04/01 00:50:27;;;;;;;0.60;0.40;;;13.30;99.90;;;;;;5073321;28;20941;-58
2024/04/01 00:52:55;;;;;;;1.93;1.40;;;13.30;99.90;;;;;;5073396;28;20437;-57
2024/04/01 00:55:22;;;;;;;1.33;0.70;;;13.30;99.90;;;;;;5073337;28;20441;-59
2024/04/01 00:57:50;;;;;;;2.63;0.40;;;13.30;99.90;;;;;;5072792;28;21040;-58
2024/04/01 01:00:16;;;;;;;4.53;0.70;;;13.30;99.90;;;;;;5073273;28;20441;-58
2024/04/01 01:02:43;;;;;;;3.80;0.60;;;13.40;99.90;;;;;;5073078;28;20476;-58
2024/04/01 01:05:15;;;;;;;0.60;0.50;;;13.40;99.90;;;;;;5073159;28;20492;-58
2024/04/01 01:07:43;;;;;;;0.90;0.63;;;13.40;99.90;;;;;;5072947;28;20994;-58
2024/04/01 01:10:10;;;;;;;0.60;0.60;;;13.40;99.90;;;;;;5073194;28;20440;-58
2024/04/01 01:12:37;;;;;;;1.93;1.00;;;13.40;99.90;;;;;;5072818;28;20441;-58
2024/04/01 01:15:04;;;;;;;4.27;1.57;;;13.50;99.90;;;;;;5073263;28;20447;-58
2024/04/01 01:17:31;;;;;;;1.77;0.83;;;13.50;99.90;;;;;;5072730;28;20457;-58
2024/04/01 01:19:57;;;;;;;0.90;0.57;;;13.50;99.90;;;;;;5072770;28;20448;-58
2024/04/01 01:22:33;;;;;;;0.70;0.63;;;13.50;99.90;;;;;;5072928;28;20476;-58
2024/04/01 01:24:59;;;;;;;0.80;0.50;;;13.50;99.90;;;;;;5075168;28;20244;-58
2024/04/01 01:27:26;;;;;;;0.70;0.70;;;13.50;99.90;;;;;;5076760;28;20476;-58
2024/04/01 01:29:52;;;;;;;2.47;1.13;;;13.50;99.90;;;;;;5076979;28;20301;-58
2024/04/01 01:32:19;;;;;;;0.83;0.40;;;13.50;99.90;;;;;;5076918;28;20527;-58
2024/04/01 01:34:46;;;;;;;1.63;0.70;;;13.50;99.90;;;;;;5076528;28;20580;-58
2024/04/01 01:37:13;;;;;;;2.60;0.60;;;13.60;99.90;;;;;;5076647;28;20840;-58
2024/04/01 01:39:40;;;;;;;1.20;0.50;;;13.50;99.90;;;;;;5076467;28;20927;-58
2024/04/01 01:42:07;;;;;;;2.37;1.17;;;13.50;99.90;;;;;;5076357;28;21029;-58
2024/04/01 01:44:33;;;;;;;2.40;1.40;;;13.50;99.90;;;;;;5076603;28;20875;-58
2024/04/01 01:46:59;;;;;;;2.00;1.60;;;13.50;99.90;;;;;;5076664;28;20492;-58
2024/04/01 01:49:25;;;;;;;2.53;1.50;;;13.50;99.90;;;;;;5076094;28;20202;-58
2024/04/01 01:51:52;;;;;;;2.20;1.80;;;13.50;99.90;;;;;;5077259;28;20453;-58
2024/04/01 01:54:18;;;;;;;4.17;1.63;;;13.50;99.90;;;;;;5076389;28;20206;-58
2024/04/01 01:56:46;;;;;;;4.23;1.50;;;13.50;99.90;;;;;;5076270;28;20440;-58
2024/04/01 01:59:12;;;;;;;1.80;1.20;;;13.50;99.90;;;;;;5075994;28;20672;-58
2024/04/01 02:01:39;;;;;;;3.70;1.60;;;13.50;99.90;;;;;;5076040;28;20526;-58
2024/04/01 02:04:04;;;;;;;3.73;1.57;;;13.50;99.90;;;;;;5076284;28;20229;-58
2024/04/01 02:06:31;;;;;;;2.10;1.50;;;13.40;99.90;;;;;;5076025;28;20923;-58
2024/04/01 02:08:57;;;;;;;4.70;2.00;;;13.40;99.90;;;;;;5076369;28;20233;-58
2024/04/01 02:11:24;;;;;;;1.73;1.20;;;13.40;99.90;;;;;;5076121;28;20880;-58
2024/04/01 02:13:51;;;;;;;6.00;1.50;;;13.40;99.90;;;;;;5076130;28;20448;-58
2024/04/01 02:16:18;;;;;;;2.30;1.07;;;13.40;99.90;;;;;;5076440;28;20547;-58
2024/04/01 02:18:45;;;;;;;2.73;1.40;;;13.40;99.90;;;;;;5075801;28;20472;-58
2024/04/01 02:21:12;;;;;;;5.87;1.63;;;13.40;99.90;;;;;;5075831;28;20440;-58
2024/04/01 02:23:37;;;;;;;4.53;1.67;;;13.40;99.90;;;;;;5075889;28;20440;-58
2024/04/01 02:26:05;;;;;;;2.20;1.27;;;13.40;99.90;;;;;;5075809;28;20448;-58
2024/04/01 02:28:31;;;;;;;1.33;1.23;;;13.30;99.90;;;;;;5075413;28;20234;-58
2024/04/01 02:30:59;;;;;;;2.13;1.40;;;13.30;99.90;;;;;;5075829;28;20447;-58
2024/04/01 02:33:26;;;;;;;1.73;1.20;;;13.30;99.90;;;;;;5075687;28;20436;-57
2024/04/01 02:35:53;;;;;;;1.53;1.13;;;13.30;99.90;;;;;;5075102;28;20440;-58
2024/04/01 02:38:19;;;;;;;2.20;1.37;;;13.30;99.90;;;;;;5075602;28;20471;-58
2024/04/01 02:40:47;;;;;;;2.60;1.40;;;13.30;99.90;;;;;;5075643;28;20444;-58
2024/04/01 02:43:13;;;;;;;2.70;1.20;;;13.30;99.90;;;;;;5075450;28;20481;-58
2024/04/01 02:45:40;;;;;;;2.87;1.93;;;13.20;99.90;;;;;;5075449;28;20441;-58
2024/04/01 02:48:07;;;;;;;3.20;2.10;;;13.20;99.90;;;;;;5075388;28;20465;-58
2024/04/01 02:50:34;;;;;;;3.40;1.70;;;13.20;99.90;;;;;;5075189;28;20971;-58
2024/04/01 02:53:00;;;;;;;1.70;1.60;;;13.20;99.90;;;;;;5075404;28;20443;-58
2024/04/01 02:55:27;;;;;;;3.67;1.90;;;13.20;99.90;;;;;;5075475;28;20535;-58
2024/04/01 02:57:52;;;;;;;2.00;1.90;;;13.20;99.90;;;;;;5074895;28;20748;-58
2024/04/01 03:00:20;;;;;;;3.37;1.53;;;13.20;99.90;;;;;;5075221;28;20444;-58
2024/04/01 03:02:47;;;;;;;1.50;1.40;;;13.10;99.90;;;;;;5074991;28;20234;-58
2024/04/01 03:05:15;;;;;;;2.43;1.10;;;13.10;99.90;;;;;;5074928;28;20962;-58
2024/04/01 03:07:42;;;;;;;2.30;1.47;;;13.10;99.90;;;;;;5074683;28;20547;-58
2024/04/01 03:10:11;;;;;;;2.17;1.40;;;13.10;99.90;;;;;;5075066;28;20440;-58
2024/04/01 03:12:36;;;;;;;1.47;1.23;;;13.10;99.90;;;;;;5074950;28;20938;-58
2024/04/01 03:15:04;;;;;;;1.50;1.17;;;13.10;99.90;;;;;;5075024;28;20445;-57
2024/04/01 03:17:31;;;;;;;1.87;1.33;;;13.10;99.90;;;;;;5074943;28;20308;-57
2024/04/01 03:19:58;;;;;;;1.40;1.30;;;13.10;99.90;;;;;;5074871;28;20501;-58
2024/04/01 03:22:26;;;;;;;1.60;1.20;;;13.10;99.90;;;;;;5074807;28;20488;-58
2024/04/01 03:24:53;;;;;;;2.03;1.23;;;13.00;99.90;;;;;;5075316;28;20457;-58
2024/04/01 03:27:20;;;;;;;1.50;1.17;;;13.00;99.90;;;;;;5074661;28;20473;-58
2024/04/01 03:29:47;;;;;;;2.23;1.33;;;13.00;99.90;;;;;;5074834;28;20440;-58
2024/04/01 03:32:13;;;;;;;1.50;1.33;;;12.90;99.90;;;;;;5074819;28;20443;-58
2024/04/01 03:34:39;;;;;;;1.17;1.00;;;12.90;99.90;;;;;;5074450;28;20543;-58
2024/04/01 03:37:07;;;;;;;4.90;1.70;;;12.90;99.90;;;;;;5074559;28;20223;-58
2024/04/01 03:39:35;;;;;;;5.13;1.50;;;12.90;99.90;;;;;;5074198;28;20452;-58
2024/04/01 03:42:02;;;;;;;1.23;1.10;;;12.90;99.90;;;;;;5074334;28;20481;-58
2024/04/01 03:44:28;;;;;;;1.40;1.03;;;12.80;99.90;;;;;;5074514;28;20449;-58
2024/04/01 03:46:55;;;;;;;2.17;1.30;;;12.80;99.90;;;;;;5073323;28;20977;-59
2024/04/01 03:49:21;;;;;;;2.30;1.43;;;12.80;99.90;;;;;;5074051;28;20676;-58
2024/04/01 03:51:48;;;;;;;1.40;1.30;;;12.80;99.90;;;;;;5074322;28;20508;-58
2024/04/01 03:54:14;;;;;;;2.10;1.10;;;12.80;99.90;;;;;;5074178;28;20625;-58
2024/04/01 03:56:42;;;;;;;1.30;1.20;;;12.80;99.90;;;;;;5074108;28;20455;-58
2024/04/01 03:59:08;;;;;;;2.43;1.53;;;12.80;99.90;;;;;;5074353;28;20437;-58
2024/04/01 04:01:35;;;;;;;1.97;1.43;;;12.80;99.90;;;;;;5073740;28;20448;-58
2024/04/01 04:04:01;;;;;;;1.47;1.37;;;12.80;99.90;;;;;;5074231;28;20493;-58
2024/04/01 04:06:28;;;;;;;3.30;1.63;;;12.80;99.90;;;;;;5074110;28;20943;-58
2024/04/01 04:08:54;;;;;;;1.30;1.20;;;12.80;99.90;;;;;;5073829;28;20233;-58
2024/04/01 04:11:20;;;;;;;2.50;1.27;;;12.80;99.90;;;;;;5073473;28;20449;-58
2024/04/01 04:13:47;;;;;;;1.20;1.10;;;12.70;99.90;;;;;;5073551;28;20198;-58
2024/04/01 04:16:14;;;;;;;4.00;1.90;;;12.70;99.90;;;;;;5074002;28;20455;-58
2024/04/01 04:18:40;;;;;;;1.40;1.20;;;12.70;99.90;;;;;;5073712;28;20464;-58
2024/04/01 04:21:10;;;;;;;1.50;1.40;;;12.70;99.90;;;;;;5073427;28;20437;-58
2024/04/01 04:23:36;;;;;;;4.67;3.13;;;12.70;99.90;;;;;;5073696;28;20211;-58
2024/04/01 04:26:03;;;;;;;2.20;1.50;;;12.80;99.90;;;;;;5073643;28;20445;-57
2024/04/01 04:28:29;;;;;;;2.07;1.60;;;12.70;99.90;;;;;;5073673;28;20242;-58
2024/04/01 04:30:57;;;;;;;1.10;0.93;;;12.70;99.90;;;;;;5073223;28;20471;-58
2024/04/01 04:33:23;;;;;;;1.30;1.20;;;12.70;99.90;;;;;;5073222;28;20954;-58
2024/04/01 04:35:50;;;;;;;1.40;1.30;;;12.70;99.90;;;;;;5073594;28;20449;-58
2024/04/01 04:38:18;;;;;;;1.30;1.07;;;12.70;99.90;;;;;;5073494;28;20218;-59
2024/04/01 04:40:44;;;;;;;1.70;1.13;;;12.70;99.90;;;;;;5073153;28;20871;-58
2024/04/01 04:43:10;;;;;;;1.53;1.30;;;12.60;99.90;;;;;;5073601;28;20480;-58
2024/04/01 04:45:47;;;;;;;3.10;1.27;;;12.60;99.90;;;;;;5073236;28;20964;-58
2024/04/01 04:48:15;;;;;;;1.70;1.40;;;12.60;99.90;;;;;;5073348;28;20226;-58
2024/04/01 04:50:41;;;;;;;1.43;1.33;;;12.60;99.90;;;;;;5072934;28;20539;-58
2024/04/01 04:53:07;;;;;;;4.67;1.23;;;12.60;99.90;;;;;;5072901;28;20441;-58
2024/04/01 04:55:34;;;;;;;1.53;1.13;;;12.60;99.90;;;;;;5073246;28;20571;-58
2024/04/01 04:58:00;;;;;;;1.10;1.10;;;12.60;99.90;;;;;;5072960;28;20226;-58
2024/04/01 05:00:26;;;;;;;3.90;1.20;;;12.60;99.90;;;;;;5073535;28;20535;-58
2024/04/01 05:02:52;;;;;;;2.63;1.23;;;12.60;99.90;;;;;;5073126;28;20233;-58
2024/04/01 05:05:20;;;;;;;2.40;1.20;;;12.60;99.90;;;;;;5073190;28;20433;-59
2024/04/01 05:07:48;;;;;;;1.37;1.17;;;12.60;99.90;;;;;;5073084;28;20592;-59
2024/04/01 05:10:15;;;;;;;1.67;1.07;;;12.60;99.90;;;;;;5073330;28;20437;-59
2024/04/01 05:12:42;;;;;;;1.97;1.73;;;12.60;99.90;;;;;;5072801;28;20943;-60
2024/04/01 05:15:10;;;;;;;1.07;0.90;;;12.60;99.90;;;;;;5072755;28;20840;-60
2024/04/01 05:17:36;;;;;;;1.70;1.60;;;12.60;99.90;;;;;;5073037;28;20457;-60
2024/04/01 05:20:05;;;;;;;1.57;1.10;;;12.50;99.90;;;;;;5072769;28;20939;-59
2024/04/01 05:22:32;;;;;;;2.60;1.60;;;12.50;99.90;;;;;;5072958;28;20482;-59
2024/04/01 05:24:59;;;;;;;2.10;1.50;;;12.50;99.90;;;;;;5072609;28;20506;-60
2024/04/01 05:27:25;;;;;;;3.83;1.10;;;12.50;99.90;;;;;;5072725;28;20476;-59
2024/04/01 05:30:02;;;;;;;1.30;1.20;;;12.50;99.90;;;;;;5072865;28;20947;-59
2024/04/01 05:32:28;;;;;;;1.17;0.90;;;12.60;99.90;;;;;;5072918;28;20210;-59
2024/04/01 05:34:55;;;;;;;1.53;1.03;;;12.60;99.90;;;;;;5072903;28;21031;-59
2024/04/01 05:37:22;;;;;;;2.40;1.10;;;12.60;99.90;;;;;;5073027;28;20971;-59
2024/04/01 05:39:50;;;;;;;1.83;1.10;;;12.60;99.90;;;;;;5073096;28;20445;-59
2024/04/01 05:42:16;;;;;;;4.47;1.30;;;12.60;99.90;;;;;;5072723;28;20480;-59
2024/04/01 05:44:43;;;;;;;2.23;1.10;;;12.60;99.90;;;;;;5072845;28;20441;-59
2024/04/01 05:47:09;;;;;;;3.37;1.33;;;12.60;99.90;;;;;;5072600;28;20218;-58
2024/04/01 05:49:36;;;;;;;3.53;1.47;;;12.70;99.90;;;;;;5072514;28;20444;-59
2024/04/01 05:52:02;;;;;;;8.30;1.30;;;12.70;99.90;;;;;;5072384;28;20968;-59
2024/04/01 05:54:30;;;;;;;6.80;1.97;;;12.70;99.90;;;;;;5072680;28;20444;-59
2024/04/01 05:56:59;;;;;;;6.63;1.53;;;12.70;99.90;;;;;;5072387;28;20495;-59
2024/04/01 05:59:25;;;;;;;5.00;1.17;;;12.70;99.90;;;;;;5072688;28;20448;-59
2024/04/01 06:01:53;;;;;;;7.60;2.20;;;12.70;99.90;;;;;;5072501;28;20503;-59
2024/04/01 06:04:19;;;;;;;4.53;1.40;;;12.70;99.90;;;;;;5072481;28;20444;-58
2024/04/01 06:06:46;;;;;;;5.23;1.50;;;12.70;99.90;;;;;;5072730;28;20448;-59
2024/04/01 06:09:12;;;;;;;13.80;1.70;;;12.70;99.90;;;;;;5072595;28;20444;-59
2024/04/01 06:11:39;;;;;;;3.47;0.90;;;12.70;99.90;;;;;;5075469;28;20445;-59
2024/04/01 06:14:06;;;;;;;4.57;1.20;;;12.70;99.90;;;;;;5076098;28;20437;-59
2024/04/01 06:16:33;;;;;;;7.13;1.27;;;12.70;99.90;;;;;;5075980;28;20802;-59
2024/04/01 06:18:59;;;;;;;9.43;1.93;;;12.70;99.90;;;;;;5076011;28;20464;-58
2024/04/01 06:21:26;;;;;;;4.23;1.30;;;12.60;99.90;;;;;;5075911;28;20446;-58
2024/04/01 06:23:51;;;;;;;3.67;1.03;;;12.60;99.90;;;;;;5075748;28;20223;-58
2024/04/01 06:26:18;;;;;;;5.50;1.20;;;12.60;99.90;;;;;;5075901;28;20813;-58
2024/04/01 06:28:45;;;;;;;4.83;1.23;;;12.60;99.90;;;;;;5075382;28;20736;-58
2024/04/01 06:31:13;;;;;;;8.33;1.27;;;12.60;99.90;;;;;;5075766;28;20507;-58
2024/04/01 06:33:39;;;;;;;1.83;1.07;;;12.50;99.90;;;;;;5075407;28;20437;-58
2024/04/01 06:36:06;;;;;;;4.47;1.53;;;12.50;99.90;;;;;;5075670;28;20482;-58
2024/04/01 06:38:33;;;;;;;2.00;1.07;;;12.50;99.90;;;;;;5075597;28;20460;-58
2024/04/01 06:41:00;;;;;;;3.93;1.37;;;12.50;99.90;;;;;;5075346;28;20943;-58
2024/04/01 06:43:26;;;;;;;10.20;1.97;;;12.40;99.90;;;;;;5075149;28;20487;-58
2024/04/01 06:45:53;;;;;;;2.60;0.90;;;12.40;99.90;;;;;;5075438;28;20441;-57
2024/04/01 06:48:21;;;;;;;3.63;1.20;;;12.30;99.90;;;;;;5075452;28;20634;-58
2024/04/01 06:50:48;;;;;;;3.13;1.90;;;12.30;99.90;;;;;;5075464;28;20448;-58
2024/04/01 06:53:17;;;;;;;5.83;2.00;;;12.20;99.90;;;;;;5075023;28;20939;-58
2024/04/01 06:55:44;;;;;;;3.93;1.40;;;12.20;99.90;;;;;;5075330;28;20453;-58
2024/04/01 06:58:10;;;;;;;1.77;1.60;;;12.10;99.90;;;;;;5075218;28;20845;-58
2024/04/01 07:00:37;;;;;;;2.73;1.17;;;12.00;99.90;;;;;;5075277;28;20445;-58
2024/04/01 07:03:03;;;;;;;2.17;1.47;;;11.90;99.90;;;;;;5075534;28;20484;-59
2024/04/01 07:05:32;;;;;;;2.27;1.23;;;11.90;99.90;;;;;;5075166;28;20449;-58
2024/04/01 07:07:58;;;;;;;4.00;1.70;;;11.90;99.90;;;;;;5075027;28;20963;-58
2024/04/01 07:10:26;;;;;;;2.23;1.70;;;11.90;99.90;;;;;;5075670;28;20445;-58
2024/04/01 07:12:52;;;;;;;2.30;1.47;;;11.90;99.90;;;;;;5074930;28;20480;-58
2024/04/01 07:15:19;;;;;;;2.07;1.27;;;11.90;99.90;;;;;;5074933;28;20472;-57
2024/04/01 07:17:45;;;;;;;3.03;2.40;;;11.90;99.90;;;;;;5074953;28;20460;-58
2024/04/01 07:20:12;;;;;;;2.53;1.67;;;12.00;99.90;;;;;;5075377;28;20523;-58
2024/04/01 07:22:40;;;;;;;4.67;1.70;;;11.90;99.90;;;;;;5074833;28;20222;-59
2024/04/01 07:25:07;;;;;;;1.77;1.67;;;12.00;99.90;;;;;;5074460;28;20507;-58
2024/04/01 07:27:34;;;;;;;2.20;2.00;;;12.10;99.90;;;;;;5074347;28;20559;-58
2024/04/01 07:30:02;;;;;;;3.07;2.07;;;12.10;99.90;;;;;;5074861;28;20562;-58
2024/04/01 07:32:28;;;;;;;2.23;2.03;;;12.20;99.90;;;;;;5074567;28;20445;-58
2024/04/01 07:34:55;;;;;;;2.90;2.60;;;12.30;99.90;;;;;;5074306;28;20817;-58
2024/04/01 07:37:21;;;;;;;3.20;2.10;;;12.40;99.90;;;;;;5074291;28;20468;-58
2024/04/01 07:39:49;;;;;;;2.33;2.00;;;12.50;99.90;;;;;;5074251;28;20444;-59
2024/04/01 07:42:15;;;;;;;2.03;1.93;;;12.60;99.90;;;;;;5074230;28;20216;-59
2024/04/01 07:44:42;;;;;;;1.73;1.63;;;12.60;99.90;;;;;;5074522;28;20448;-58
2024/04/01 07:47:08;;;;;;;1.80;1.70;;;12.60;99.90;;;;;;5074105;28;20222;-58
2024/04/01 07:49:35;;;;;;;4.40;1.80;;;12.60;99.90;;;;;;5074033;28;20461;-58
2024/04/01 07:52:02;;;;;;;2.73;1.60;;;12.60;99.90;;;;;;5074267;28;20445;-59
2024/04/01 07:54:29;;;;;;;2.00;1.73;;;12.50;99.90;;;;;;5074285;28;20491;-59
2024/04/01 07:56:57;;;;;;;2.30;1.90;;;12.50;99.90;;;;;;5074068;28;20441;-59
2024/04/01 07:59:24;;;;;;;4.80;2.03;;;12.40;99.90;;;;;;5074363;28;20445;-59
2024/04/01 08:01:50;;;;;;;2.90;2.30;;;12.40;99.90;;;;;;5073990;28;20444;-58
2024/04/01 08:04:17;;;;;;;4.40;2.20;;;12.30;99.90;;;;;;5073947;28;20472;-59
2024/04/01 08:06:43;;;;;;;2.60;2.33;;;12.10;99.90;;;;;;5073556;28;20437;-58
2024/04/01 08:09:10;;;;;;;5.30;2.63;;;12.10;99.90;;;;;;5073862;28;20491;-58
2024/04/01 08:11:36;;;;;;;2.90;2.47;;;12.10;99.90;;;;;;5073472;28;20451;-57
2024/04/01 08:14:04;;;;;;;2.93;2.67;;;12.00;99.90;;;;;;5073796;28;20436;-58
2024/04/01 08:16:30;;;;;;;3.07;2.77;;;12.00;99.90;;;;;;5073731;28;20202;-58
2024/04/01 08:18:57;;;;;;;3.27;2.97;;;11.90;99.90;;;;;;5073320;28;20839;-58
2024/04/01 08:21:23;;;;;;;2.53;2.33;;;11.90;99.90;;;;;;5073662;28;20449;-58
2024/04/01 08:23:50;;;;;;;3.57;3.27;;;11.90;99.90;;;;;;5073503;28;21000;-58
2024/04/01 08:26:16;;;;;;;3.90;2.60;;;11.90;99.90;;;;;;5073700;28;20198;-58
2024/04/01 08:28:43;;;;;;;2.80;2.60;;;11.90;99.90;;;;;;5073119;28;20468;-58
2024/04/01 08:31:10;;;;;;;7.30;3.00;;;11.90;99.90;;;;;;5073486;28;20441;-58
2024/04/01 08:33:37;;;;;;;4.53;3.30;;;11.80;99.90;;;;;;5072975;28;20524;-58
2024/04/01 08:36:04;;;;;;;4.00;3.57;;;11.80;99.90;;;;;;5073445;28;20445;-58
2024/04/01 08:38:31;;;;;;;3.93;3.27;;;11.70;99.90;;;;;;5073456;28;20530;-58
2024/04/01 08:40:59;;;;;;;3.93;3.53;;;11.70;99.90;;;;;;5073347;28;20444;-58
2024/04/01 08:43:35;;;;;;;4.63;4.23;;;11.60;99.90;;;;;;5073366;28;20480;-58
2024/04/01 08:46:02;;;;;;;4.10;3.80;;;11.60;99.90;;;;;;5073446;28;20487;-58
2024/04/01 08:48:32;;;;;;;4.87;4.47;;;11.70;99.90;;;;;;5073195;28;20548;-58
2024/04/01 08:51:03;;;;;;;5.07;4.63;;;11.80;99.90;;;;;;5073025;28;20767;-58
2024/04/01 08:53:43;;;;;;;5.30;4.70;;;11.80;99.90;;;;;;5072939;28;20428;-58
2024/04/01 08:56:11;;;;;;;4.40;4.00;;;12.00;99.90;;;;;;5073101;28;20899;-58
2024/04/01 08:58:38;;;;;;;4.97;4.53;;;12.10;99.90;;;;;;5073130;28;20555;-58
2024/04/01 09:01:05;;;;;;;5.03;4.53;;;12.20;99.90;;;;;;5073212;28;20510;-59
2024/04/01 09:03:32;;;;;;;4.20;3.90;;;12.30;99.90;;;;;;5073102;28;20486;-59
2024/04/01 09:05:59;;;;;;;4.27;3.97;;;12.40;99.90;;;;;;5072931;28;20449;-59
2024/04/01 09:08:25;;;;;;;3.67;3.30;;;12.30;99.90;;;;;;5073257;28;20468;-59
2024/04/01 09:10:53;;;;;;;4.30;3.90;;;12.30;99.90;;;;;;5072742;28;20535;-59
2024/04/01 09:13:19;;;;;;;4.30;3.90;;;12.20;99.90;;;;;;5073117;28;20198;-59
2024/04/01 09:15:46;;;;;;;4.50;4.20;;;12.10;99.90;;;;;;5073124;28;20467;-59
2024/04/01 09:18:13;;;;;;;5.53;4.30;;;12.10;99.90;;;;;;5073024;28;20464;-59
2024/04/01 09:20:43;;;;;;;4.73;4.43;;;12.00;99.90;;;;;;5072756;28;20440;-59
2024/04/01 09:23:09;;;;;;;4.80;4.40;;;11.90;99.90;;;;;;5073771;28;20484;-59
2024/04/01 09:25:36;;;;;;;5.43;5.03;;;11.90;99.90;;;;;;5072668;28;20830;-58
2024/04/01 09:28:04;;;;;;;5.57;4.70;;;11.90;99.90;;;;;;5072630;28;21002;-58
2024/04/01 09:30:31;;;;;;;6.07;5.50;;;12.00;99.90;;;;;;5072967;28;20540;-58
2024/04/01 09:32:59;;;;;;;4.30;4.00;;;11.90;99.90;;;;;;5072903;28;20535;-58
2024/04/01 09:35:26;;;;;;;6.37;4.13;;;12.00;99.90;;;;;;5072773;28;20448;-57
2024/04/01 09:37:54;;;;;;;4.20;3.57;;;12.00;99.90;;;;;;5072836;28;20540;-58
2024/04/01 09:40:21;;;;;;;3.93;3.63;;;12.00;99.90;;;;;;5072861;28;20543;-58
2024/04/01 09:42:47;;;;;;;4.30;3.93;;;12.00;99.90;;;;;;5072696;28;20820;-58
2024/04/01 09:45:14;;;;;;;3.53;3.20;;;12.00;99.90;;;;;;5073657;28;20452;-58
2024/04/01 09:47:40;;;;;;;3.43;3.13;;;12.10;99.90;;;;;;5076796;28;20460;-58
2024/04/01 09:50:08;;;;;;;4.80;3.47;;;12.10;99.90;;;;;;5076525;28;20440;-59
2024/04/01 09:52:34;;;;;;;3.57;3.27;;;12.20;99.90;;;;;;5076597;28;20922;-58
2024/04/01 09:55:15;;;;;;;5.20;3.10;;;12.20;99.90;;;;;;5076542;28;20480;-58
2024/04/01 09:58:24;;;;;;;2.90;2.60;;;12.40;99.90;;;;;;5076097;28;20460;-59
2024/04/01 10:00:53;;;;;;;4.13;3.00;;;12.50;99.90;;;;;;5076504;28;20428;-59
2024/04/01 10:04:00;;;;;;;3.70;3.07;;;12.70;99.90;;;;;;5076312;28;20484;-59
2024/04/01 10:07:03;;;;;;;2.60;2.40;;;13.00;99.90;;;;;;5076503;28;20424;-59
2024/04/01 10:10:11;;;;;;;2.57;2.43;;;13.10;99.90;;;;;;5075878;28;20881;-59
2024/04/01 10:13:14;;;;;;;2.83;2.47;;;13.20;99.90;;;;;;5076170;28;20477;-58
2024/04/01 10:16:14;;;;;;;3.57;2.40;;;13.30;99.90;;;;;;5051191;28;20440;-58
2024/04/01 10:19:04;;;;;;;2.40;2.00;;;13.40;99.90;;;;;;5031939;28;20468;-58
2024/04/01 10:21:47;;;;;;;2.50;2.30;;;13.50;99.90;;;;;;5075776;28;20427;-58
2024/04/01 10:24:53;;;;;;;2.73;2.53;;;13.40;99.90;;;;;;5076414;28;20871;-58
2024/04/01 10:27:55;;;;;;;2.77;2.30;;;13.30;99.90;;;;;;5075682;28;20468;-57
2024/04/01 10:30:43;;;;;;;2.77;2.27;;;13.20;99.90;;;;;;5031953;28;20448;-58
2024/04/01 10:33:52;;;;;;;3.43;2.37;;;13.30;99.90;;;;;;5075876;28;20422;-58
2024/04/01 10:36:30;;;;;;;2.80;1.93;;;13.50;99.90;;;;;;5075895;28;20425;-58
2024/04/01 10:39:24;;;;;;;4.00;2.17;;;13.60;99.90;;;;;;5075646;28;20468;-57
2024/04/01 10:42:22;;;;;;;4.03;2.23;;;13.60;99.90;;;;;;5075429;28;20942;-57
2024/04/01 10:45:21;;;;;;;5.00;2.50;;;13.70;99.90;;;;;;5072237;28;20484;-57
2024/04/01 10:48:15;;;;;;;4.90;2.43;;;13.60;99.90;;;;;;5075306;28;20518;-56
2024/04/01 10:51:19;;;;;;;5.07;1.60;;;13.60;99.90;;;;;;5075658;28;20421;-57
2024/04/01 10:53:57;;;;;;;1.60;1.50;;;13.60;99.90;;;;;;5075143;28;20926;-57
2024/04/01 10:57:11;;;;;;;2.50;1.70;;;13.60;99.90;;;;;;5074953;28;20933;-57
2024/04/01 11:00:20;;;;;;;3.60;1.73;;;13.60;99.90;;;;;;5075069;28;20440;-57
2024/04/01 11:03:26;;;;;;;1.67;1.43;;;13.70;99.90;;;;;;5075304;28;20422;-57
2024/04/01 11:06:17;;;;;;;1.70;1.60;;;13.60;99.90;;;;;;5041098;28;20452;-57
2024/04/01 11:08:56;;;;;;;3.00;1.90;;;13.60;99.90;;;;;;5075131;28;20544;-57
2024/04/01 11:11:36;;;;;;;2.60;1.30;;;13.50;99.90;;;;;;5075223;28;20417;-57
2024/04/01 11:14:03;;;;;;;3.53;1.93;;;13.40;99.90;;;;;;5075024;28;20429;-57
2024/04/01 11:16:32;;;;;;;4.47;1.60;;;13.30;99.90;;;;;;5075023;28;20441;-57
2024/04/01 11:19:23;;;;;;;5.83;1.77;;;13.30;99.90;;;;;;5074860;28;20544;-57
2024/04/01 11:21:52;;;;;;;3.73;1.83;;;13.30;99.90;;;;;;5071456;28;20481;-57
2024/04/01 11:24:30;;;;;;;3.50;1.60;;;13.20;99.90;;;;;;5074712;28;20575;-57
2024/04/01 11:27:22;;;;;;;3.73;1.70;;;13.20;99.90;;;;;;5074752;28;20484;-57
2024/04/01 11:30:03;;;;;;;3.53;1.63;;;13.10;99.90;;;;;;5074726;28;20452;-57
2024/04/01 11:32:34;;;;;;;1.77;1.23;;;13.10;99.90;;;;;;5074807;28;20455;-56
2024/04/01 11:35:12;;;;;;;3.13;1.50;;;13.20;99.90;;;;;;5074695;28;20425;-57
2024/04/01 11:37:51;;;;;;;3.97;1.60;;;13.10;99.90;;;;;;5074538;28;20473;-57
2024/04/01 11:40:22;;;;;;;2.50;1.70;;;13.10;99.90;;;;;;5074459;28;20854;-57
2024/04/01 11:43:00;;;;;;;5.50;2.10;;;13.20;99.90;;;;;;5074175;28;20472;-56
2024/04/01 11:45:29;;;;;;;4.67;1.90;;;13.30;99.90;;;;;;5074329;28;20417;-57
2024/04/01 11:47:57;;;;;;;1.80;1.40;;;13.20;99.90;;;;;;5074128;28;20475;-57
2024/04/01 11:50:24;;;;;;;3.23;1.77;;;13.30;99.90;;;;;;5073926;28;20444;-57
2024/04/01 11:53:01;;;;;;;2.10;1.53;;;13.30;99.90;;;;;;5074253;28;20445;-57
2024/04/01 11:55:28;;;;;;;2.43;1.30;;;13.20;99.90;;;;;;5074167;28;20871;-57
2024/04/01 11:57:55;;;;;;;5.10;1.70;;;13.20;99.90;;;;;;5073980;28;20464;-57
2024/04/01 12:00:21;;;;;;;2.10;1.57;;;13.20;99.90;;;;;;5074119;28;20440;-57
2024/04/01 12:02:55;;;;;;;4.20;1.50;;;13.20;99.90;;;;;;5073980;28;21023;-57
2024/04/01 12:05:21;;;;;;;6.10;1.60;;;13.30;99.90;;;;;;5073927;28;20229;-58
2024/04/01 12:07:50;;;;;;;7.50;1.83;;;13.30;99.90;;;;;;5073090;28;20469;-57
2024/04/01 12:10:17;;;;;;;3.70;2.10;;;13.40;99.90;;;;;;5073550;28;20463;-57
2024/04/01 12:12:46;;;;;;;4.37;2.00;;;13.50;99.90;;;;;;5073879;28;20444;-57
2024/04/01 12:15:15;;;;;;;2.90;2.00;;;13.60;99.90;;;;;;5073711;28;20440;-56
2024/04/01 12:17:43;;;;;;;5.10;2.50;;;13.60;99.90;;;;;;5073682;28;20500;-57
2024/04/01 12:20:09;;;;;;;6.20;2.60;;;13.80;99.90;;;;;;5073736;28;20453;-57
2024/04/01 12:22:37;;;;;;;3.43;2.13;;;14.00;99.90;;;;;;5073399;28;21127;-57
2024/04/01 12:25:06;;;;;;;4.30;2.37;;;14.10;99.90;;;;;;5073724;28;20488;-57
2024/04/01 12:27:36;;;;;;;9.90;2.37;;;14.30;99.40;;;;;;5073355;28;20488;-57
2024/04/01 12:30:04;;;;;;;4.43;2.40;;;14.40;98.60;;;;;;5073676;28;20452;-57
2024/04/01 12:32:40;;;;;;;4.10;2.27;;;14.50;99.20;;;;;;5073314;28;20444;-57
2024/04/01 12:35:08;;;;;;;5.27;2.00;;;14.60;99.10;;;;;;5073292;28;20430;-57
2024/04/01 12:37:37;;;;;;;2.37;1.67;;;14.70;98.70;;;;;;5073522;28;20457;-57
2024/04/01 12:40:06;;;;;;;5.40;2.10;;;14.70;97.70;;;;;;5073238;28;20939;-57
2024/04/01 12:42:35;;;;;;;3.73;1.43;;;14.70;95.90;;;;;;5073536;28;20453;-57
2024/04/01 12:45:02;;;;;;;1.77;1.40;;;14.70;96.10;;;;;;5073006;28;20994;-57
2024/04/01 12:47:29;;;;;;;8.80;3.30;;;14.60;96.10;;;;;;5073316;28;21048;-57
2024/04/01 12:49:59;;;;;;;4.03;2.00;;;14.60;96.90;;;;;;5073359;28;20440;-57
2024/04/01 12:52:34;;;;;;;3.60;1.80;;;14.70;97.00;;;;;;5073309;28;20855;-57
2024/04/01 12:55:12;;;;;;;3.73;1.60;;;14.70;95.20;;;;;;5073022;28;20925;-56
2024/04/01 12:57:53;;;;;;;6.57;2.07;;;14.60;94.80;;;;;;5073272;28;20468;-57
2024/04/01 13:00:24;;;;;;;2.10;1.27;;;14.50;95.50;;;;;;5073264;28;20421;-57
2024/04/01 13:03:16;;;;;;;5.30;1.70;;;14.50;96.60;;;;;;5073026;28;20523;-57